This demonstration page uses our WeatherBlox Daily Observations layout. Learn more.

36.19886, -115.1175

Hourly Observations for November 13, 2018

Temp ( °F °C ) Dew Point ( °F °C ) Humidity (%) Winds ( mph kmh ) Pressure ( in mb ) Visibility ( mi km ) Precip ( " mm )
12:53 am 00:53 Clear 43 6.1 11 -11.7 27 27 W 5 7 30.56 1035 10 16.09344 0 0
1:53 am 01:53 Clear 39 3.9 11 -11.7 31 31 Calm 30.59 1036 10 16.09344 0 0
2:53 am 02:53 Clear 39 3.9 10 -12.2 30 30 Calm 30.59 1036 10 16.09344 0 0
3:53 am 03:53 Clear 37 2.8 11 -11.7 34 34 NNW 3 6 30.59 1036 10 16.09344 0 0
4:53 am 04:53 Clear 38 3.3 13 -10.6 36 36 Calm 30.62 1037 10 16.09344 0 0
5:53 am 05:53 Clear 36 2.2 12 -11.1 37 37 NW 6 9 30.62 1037 10 16.09344 0 0
6:53 am 06:53 Sunny 37 2.8 12 -11.1 36 36 N 6 9 30.65 1038 10 16.09344 0 0
7:53 am 07:53 Sunny 44 6.7 11 -11.7 26 26 N 5 7 30.65 1038 10 16.09344 0 0
8:53 am 08:53 Sunny 49 9.4 10 -12.2 21 21 SW 3 6 30.65 1038 10 16.09344 0 0
9:53 am 09:53 Sunny 54 12.2 9 -12.8 16 16 Calm 30.65 1038 10 16.09344 0 0
10:53 am 10:53 Sunny 55 12.8 6 -14.4 14 14 N 5 7 30.62 1037 10 16.09344 0 0
11:53 am 11:53 Sunny 56 13.3 4 -15.6 12 12 W 3 6 30.59 1036 10 16.09344 0 0
12:53 pm 12:53 Sunny 59 15 4 -15.6 11 11 SSE 5 7 30.53 1034 10 16.09344 0 0
1:53 pm 13:53 Sunny 59 15 3 -16.1 10 10 Calm 30.53 1034 10 16.09344 0 0
2:53 pm 14:53 Sunny 60 15.6 3 -16.1 10 10 Calm 30.5 1033 10 16.09344 0 0
3:53 pm 15:53 Sunny 60 15.6 3 -16.1 10 10 Calm 30.5 1033 10 16.09344 0 0
4:53 pm 16:53 Clear 58 14.4 5 -15 12 12 Calm 30.5 1033 10 16.09344 0 0
5:53 pm 17:53 Clear 55 12.8 9 -12.8 16 16 W 3 6 30.5 1033 10 16.09344 0 0
6:53 pm 18:53 Clear 52 11.1 11 -11.7 19 19 WNW 6 9 30.5 1033 10 16.09344 0 0
7:53 pm 19:53 Clear 49 9.4 13 -10.6 23 23 N 5 7 30.5 1033 10 16.09344 0 0
8:53 pm 20:53 Clear 48 8.9 11 -11.7 22 22 Calm 30.5 1033 10 16.09344 0 0
9:53 pm 21:53 Clear 47 8.3 12 -11.1 24 24 WNW 5 7 30.5 1033 10 16.09344 0 0
10:53 pm 22:53 Clear 47 8.3 11 -11.7 23 23 NW 8 13 30.5 1033 10 16.09344 0 0
11:53 pm 23:53 Clear 47 8.3 11 -11.7 23 23 W 5 7 30.48 1032 10 16.09344 0 0

Powered by AerisWeather